createdAt,value
2023-05-19T00:00:25.265Z,61
2023-05-19T00:30:09.504Z,61
2023-05-19T01:00:00.272Z,62
2023-05-19T02:00:00.850Z,65
2023-05-19T02:30:12.338Z,65
2023-05-19T03:00:15.738Z,66
2023-05-19T03:30:06.953Z,66
2023-05-19T04:00:22.866Z,66
2023-05-19T04:30:14.581Z,68
2023-05-19T05:00:26.287Z,67
2023-05-19T05:30:18.270Z,66
2023-05-19T06:30:28.593Z,64
2023-05-19T07:00:30.690Z,63
2023-05-19T07:30:03.055Z,60
2023-05-19T08:00:15.039Z,62
2023-05-19T08:30:15.731Z,60
2023-05-19T09:00:19.614Z,56
2023-05-19T09:30:23.463Z,57
2023-05-19T10:00:04.193Z,55
2023-05-19T10:30:25.803Z,56
2023-05-19T11:00:23.011Z,56
2023-05-19T11:30:06.293Z,55
2023-05-19T12:00:17.334Z,56
2023-05-19T12:30:20.220Z,54
2023-05-19T13:00:22.264Z,52
2023-05-19T13:30:05.474Z,53
2023-05-19T14:00:27.637Z,56
2023-05-19T14:30:19.766Z,56
2023-05-19T15:00:10.780Z,54
2023-05-19T16:00:09.682Z,58
2023-05-19T16:30:13.805Z,59
2023-05-19T17:00:25.106Z,60
2023-05-19T17:30:09.020Z,61
2023-05-19T18:00:19.495Z,63
2023-05-19T18:30:02.889Z,65
2023-05-19T19:00:15.028Z,65
2023-05-19T19:30:29.831Z,68
2023-05-19T20:30:20.746Z,71
2023-05-19T21:00:11.037Z,71
2023-05-19T21:30:25.745Z,70
2023-05-19T22:00:06.489Z,71
2023-05-19T22:30:20.512Z,72
2023-05-19T23:00:11.511Z,71
2023-05-19T23:30:24.108Z,73
